メインページ
METAR-TAF:

METAR-TAF

空港 :

ブリュッセル, ベルギー

ブリュッセル空港

緯度: 50-54N, 経度: 004-32E, 海抜: 55m

現時点の気象観測

当レポートは43分前の13:50(UTC)に作成
の風 5kt
気温 4°C
湿度 87%
気圧 1016 hPa
視程: 8000m
高度1500ftの雲はほとんどない

METAR: EBBR 211350Z 18005KT 8000 FEW015 04/02 Q1016 NOSIG

時間: 15:33 (14:33 UTC)

予報

当レポートは3時間13分前の11:20(UTC)に作成
予報は21日の 12時(UTC)から 22日の 18時(UTC)まで有効
南/南西の風 5kt
視程10km以上
1,500メートル以下は雲なし、積乱雲なし
21日の 19時(UTC)から 22日の 06時(UTC)まで一時的に
高度1200ftの千切れ雲あり
21日の 20時(UTC)から 21日の 22時(UTC)まで徐々に
南/南東の風 10kt
確率 40% :
21日の 20時(UTC)から 21日の 24時(UTC)まで一時的に
視程: 3800m
高度500ftの千切れ雲あり
雨, 雪, 雨, 霧雨
22日の 00時(UTC)から 22日の 02時(UTC)まで徐々に
南/南西の風 10kt
確率 40% :
22日の 00時(UTC)から 22日の 05時(UTC)まで一時的に
高度500ftの千切れ雲あり
22日の 06時(UTC)から 22日の 08時(UTC)まで徐々に
西の風 8kt

TAF: EBBR 211120Z 2112/2218 21005KT CAVOK TEMPO 2119/2206 BKN012 BECMG 2120/2122 15010KT PROB40 TEMPO 2120/2124 3800 RASN RADZ BKN005 BECMG 2200/2202 21010KT PROB40 TEMPO 2200/2205 BKN005 BECMG 2206/2208 27008KT

4,000以上の空港の気象観測と天気予報(METAR報とTAF報)

利用可能な観測所は地図上に黄色い丸と赤い丸で示す。

丸の上にカーソルを重ねると観測所名を参照できる。

次にクリックすると気象観測と天気予報を参照できる。

マップの切り替え:黒色「×」印の緑ボタンをクリックして拡大、「-」印の緑ボタンをクリックして縮小、緑色の三角印をクリックして隣りの地図に切り替え


METAR-TAF: